Time;durP1;ratioP1;P1;durP2;ratioP2;P2;SDS_P1;SDS_P2;PMS_P1;PMS_P2;Temp;Humidity;BMP_temperature;BMP_pressure;BME280_temperature;BME280_humidity;BME280_pressure;Samples;Min_cycle;Max_cycle;Signal;HPM_P1;HPM_P2
2023/10/11 00:02:59;;;;;;;27.13;11.10;;;;;;;17.65;100.00;101374.81;5029949;28;20112;-67
2023/10/11 00:05:27;;;;;;;37.22;12.77;;;;;;;17.59;100.00;101371.63;5030622;28;20476;-66
2023/10/11 00:07:57;;;;;;;33.13;11.87;;;;;;;17.65;100.00;101361.50;5030891;28;20484;-65
2023/10/11 00:10:22;;;;;;;38.33;11.93;;;;;;;17.63;100.00;101371.38;5030851;28;20037;-66
2023/10/11 00:12:50;;;;;;;28.38;11.85;;;;;;;17.60;100.00;101379.53;5031035;28;20025;-64
2023/10/11 00:15:16;;;;;;;35.35;11.25;;;;;;;17.64;100.00;101373.06;5029350;28;20048;-65
2023/10/11 00:17:45;;;;;;;34.22;12.13;;;;;;;17.62;100.00;101377.66;5030249;28;20025;-65
2023/10/11 00:20:28;;;;;;;31.38;11.45;;;;;;;17.66;100.00;101371.19;5030294;28;20036;-64
2023/10/11 00:22:54;;;;;;;35.75;11.10;;;;;;;17.62;100.00;101377.66;5030655;28;20049;-65
2023/10/11 00:25:26;;;;;;;39.78;12.27;;;;;;;17.59;100.00;101368.94;5030097;28;20076;-63
2023/10/11 00:27:52;;;;;;;31.45;11.27;;;;;;;17.61;100.00;101375.06;5030627;28;20026;-64
2023/10/11 00:30:19;;;;;;;35.38;11.50;;;;;;;17.66;100.00;101373.88;5030419;28;20036;-65
2023/10/11 00:32:47;;;;;;;34.35;11.15;;;;;;;17.65;100.00;101372.16;5029709;28;20097;-64
2023/10/11 00:35:19;;;;;;;34.38;12.38;;;;;;;17.63;100.00;101365.16;5030045;28;20026;-66
2023/10/11 00:37:48;;;;;;;36.70;11.82;;;;;;;17.70;100.00;101353.22;5031003;28;20075;-64
2023/10/11 00:40:14;;;;;;;31.73;11.93;;;;;;;17.66;100.00;101365.88;5030134;28;20029;-65
2023/10/11 00:42:41;;;;;;;36.55;11.85;;;;;;;17.66;100.00;101359.66;5030716;28;20427;-64
2023/10/11 00:45:08;;;;;;;33.47;12.13;;;;;;;17.59;100.00;101356.50;5029774;28;20033;-65
2023/10/11 00:47:40;;;;;;;32.42;12.57;;;;;;;17.66;100.00;101360.53;5029838;28;20014;-65
2023/10/11 00:50:09;;;;;;;38.22;12.93;;;;;;;17.64;100.00;101350.91;5029705;28;20029;-64
2023/10/11 00:52:35;;;;;;;35.63;11.88;;;;;;;17.66;100.00;101346.34;5030967;28;20033;-66
2023/10/11 00:55:00;;;;;;;32.65;12.50;;;;;;;17.68;100.00;101345.34;5029389;28;20024;-65
2023/10/11 00:57:27;;;;;;;36.92;13.45;;;;;;;17.60;100.00;101346.69;5027473;28;20025;-65
2023/10/11 00:59:53;;;;;;;40.17;13.32;;;;;;;17.55;100.00;101337.16;5030754;28;20049;-66
2023/10/11 01:02:18;;;;;;;32.83;11.73;;;;;;;17.49;100.00;101340.16;5030130;28;20069;-70
2023/10/11 01:04:44;;;;;;;35.60;12.57;;;;;;;17.48;100.00;101334.91;5029896;28;20214;-64
2023/10/11 01:07:10;;;;;;;38.10;13.02;;;;;;;17.45;100.00;101343.09;5030690;28;20037;-64
2023/10/11 01:09:37;;;;;;;39.65;14.88;;;;;;;17.42;100.00;101342.31;5029763;28;20664;-65
2023/10/11 01:12:03;;;;;;;33.00;13.75;;;;;;;17.38;100.00;101337.22;5030590;28;20033;-63
2023/10/11 01:14:36;;;;;;;40.55;14.60;;;;;;;17.34;100.00;101341.00;5030987;28;20029;-65
2023/10/11 01:17:02;;;;;;;39.20;14.48;;;;;;;17.31;100.00;101334.06;5029475;28;20120;-64
2023/10/11 01:19:27;;;;;;;40.80;14.70;;;;;;;17.29;100.00;101339.47;5030434;28;20543;-66
2023/10/11 01:21:59;;;;;;;32.53;14.60;;;;;;;17.36;100.00;101337.31;5028775;28;20064;-64
2023/10/11 01:24:24;;;;;;;43.03;13.85;;;;;;;17.30;100.00;101330.53;5029244;28;20040;-64
2023/10/11 01:26:49;;;;;;;31.08;13.23;;;;;;;17.27;100.00;101335.16;5029951;28;20063;-66
2023/10/11 01:29:15;;;;;;;39.20;12.30;;;;;;;17.17;100.00;101330.34;5029761;28;20541;-65
2023/10/11 01:31:40;;;;;;;36.83;13.23;;;;;;;17.12;100.00;101327.06;5029090;28;20021;-64
2023/10/11 01:34:06;;;;;;;36.22;13.70;;;;;;;17.23;100.00;101322.94;5030593;28;20033;-65
2023/10/11 01:36:31;;;;;;;34.25;13.57;;;;;;;17.20;100.00;101321.31;5029589;28;20108;-64
2023/10/11 01:39:00;;;;;;;37.38;14.10;;;;;;;17.09;100.00;101323.69;5028309;28;20502;-64
2023/10/11 01:41:29;;;;;;;29.05;13.43;;;;;;;17.15;100.00;101318.03;5029544;28;20061;-65
2023/10/11 01:43:55;;;;;;;31.48;12.88;;;;;;;17.14;100.00;101311.00;5028491;28;20092;-65
2023/10/11 01:46:35;;;;;;;37.50;14.73;;;;;;;17.11;100.00;101314.69;5028162;28;20071;-65
2023/10/11 01:49:01;;;;;;;33.80;14.38;;;;;;;17.07;100.00;101297.16;5029307;28;20022;-64
2023/10/11 01:51:27;;;;;;;28.77;14.73;;;;;;;17.02;100.00;101293.84;5029388;28;20067;-65
2023/10/11 01:53:56;;;;;;;35.25;14.45;;;;;;;16.95;100.00;101292.47;5027833;28;20069;-65
2023/10/11 01:56:25;;;;;;;42.30;14.80;;;;;;;16.91;100.00;101291.75;5028296;28;20634;-66
2023/10/11 01:58:52;;;;;;;35.53;14.82;;;;;;;16.89;100.00;101289.19;5029084;28;20549;-66
2023/10/11 02:01:22;;;;;;;37.10;15.75;;;;;;;16.88;100.00;101278.63;5028091;28;20030;-64
2023/10/11 02:03:52;;;;;;;34.58;16.40;;;;;;;16.83;100.00;101275.34;5029087;28;20599;-64
2023/10/11 02:06:18;;;;;;;44.75;16.13;;;;;;;16.81;100.00;101275.44;5008779;28;20076;-64
2023/10/11 02:08:44;;;;;;;38.40;16.33;;;;;;;16.79;100.00;101266.66;5008995;28;20029;-64
2023/10/11 02:11:09;;;;;;;45.22;17.77;;;;;;;16.77;100.00;101269.41;5008599;28;20030;-64
2023/10/11 02:13:34;;;;;;;40.83;16.40;;;;;;;16.73;100.00;101273.19;5009601;28;20038;-65
2023/10/11 02:16:00;;;;;;;42.33;16.23;;;;;;;16.79;100.00;101274.66;5015155;28;20029;-64
2023/10/11 02:18:26;;;;;;;37.80;15.95;;;;;;;16.77;100.00;101292.50;5029228;28;20041;-64
2023/10/11 02:20:55;;;;;;;30.80;15.85;;;;;;;16.78;100.00;101297.75;5028044;28;20967;-65
2023/10/11 02:23:20;;;;;;;44.47;17.13;;;;;;;16.78;100.00;101286.25;5029331;28;20049;-66
2023/10/11 02:25:46;;;;;;;34.63;16.33;;;;;;;16.80;100.00;101281.72;5027610;28;20375;-63
2023/10/11 02:28:14;;;;;;;34.25;16.17;;;;;;;16.83;100.00;101286.00;5028375;28;20025;-63
2023/10/11 02:30:41;;;;;;;37.53;17.38;;;;;;;16.83;100.00;101286.00;5027777;28;20400;-64
2023/10/11 02:33:07;;;;;;;38.80;17.02;;;;;;;16.78;100.00;101270.28;5028890;28;20018;-65
2023/10/11 02:35:49;;;;;;;37.85;16.40;;;;;;;16.75;100.00;101283.75;5027859;28;20041;-65
2023/10/11 02:38:21;;;;;;;44.65;16.95;;;;;;;16.77;100.00;101280.06;5029129;28;20033;-64
2023/10/11 02:40:54;;;;;;;40.63;16.25;;;;;;;16.78;100.00;101280.91;5028116;28;20065;-64
2023/10/11 02:43:20;;;;;;;41.55;16.70;;;;;;;16.75;100.00;101276.63;5028683;28;20073;-65
2023/10/11 02:45:45;;;;;;;37.83;17.05;;;;;;;16.72;100.00;101271.47;5026494;28;20032;-64
2023/10/11 02:48:11;;;;;;;31.50;16.65;;;;;;;16.70;100.00;101267.19;5027934;28;20033;-64
2023/10/11 02:50:36;;;;;;;42.80;17.83;;;;;;;16.66;100.00;101275.31;5026345;28;20025;-65
2023/10/11 02:53:20;;;;;;;40.45;17.67;;;;;;;16.67;100.00;101274.38;5029071;28;20029;-64
2023/10/11 02:55:57;;;;;;;34.22;17.95;;;;;;;16.59;100.00;101270.41;5027677;28;20017;-64
2023/10/11 02:58:31;;;;;;;44.28;17.77;;;;;;;16.49;100.00;101275.31;5026614;28;20048;-65
2023/10/11 03:01:04;;;;;;;36.03;18.05;;;;;;;16.60;100.00;101278.31;5027284;28;20017;-65
2023/10/11 03:03:29;;;;;;;37.97;17.90;;;;;;;16.52;100.00;101273.38;5028721;28;20499;-65
2023/10/11 03:05:58;;;;;;;40.30;18.33;;;;;;;16.52;100.00;101265.41;5026037;28;20083;-65
2023/10/11 03:08:26;;;;;;;37.87;17.47;;;;;;;16.47;100.00;101264.78;5028184;28;20026;-66
2023/10/11 03:10:57;;;;;;;32.08;16.38;;;;;;;16.55;100.00;101275.00;5027616;28;20022;-64
2023/10/11 03:13:41;;;;;;;39.10;17.33;;;;;;;16.52;100.00;101276.03;5027741;28;20033;-65
2023/10/11 03:16:11;;;;;;;34.53;17.33;;;;;;;16.52;100.00;101267.19;5026601;28;20025;-64
2023/10/11 03:18:39;;;;;;;40.15;17.52;;;;;;;16.55;100.00;101269.69;5027369;28;20021;-64
2023/10/11 03:21:21;;;;;;;34.97;16.85;;;;;;;16.60;100.00;101267.66;5027080;28;20587;-64
2023/10/11 03:23:54;;;;;;;36.55;16.88;;;;;;;16.57;100.00;101259.84;5027571;28;20041;-64
2023/10/11 03:26:31;;;;;;;31.13;16.50;;;;;;;16.58;100.00;101258.88;5028111;28;20029;-64
2023/10/11 03:29:04;;;;;;;32.92;16.75;;;;;;;16.59;100.00;101246.47;5028238;28;20025;-65
2023/10/11 03:31:40;;;;;;;30.15;17.20;;;;;;;16.48;100.00;101252.34;5026763;28;20033;-65
2023/10/11 03:34:15;;;;;;;40.17;17.42;;;;;;;16.51;100.00;101252.19;5027946;28;20419;-66
2023/10/11 03:36:51;;;;;;;34.95;16.08;;;;;;;16.55;100.00;101248.41;5028124;28;20113;-67
2023/10/11 03:42:12;;;;;;;39.33;16.42;;;;;;;16.55;100.00;101251.06;5028786;28;20044;-65
2023/10/11 03:44:44;;;;;;;33.40;16.40;;;;;;;16.50;100.00;101239.81;5027026;28;20121;-65
2023/10/11 03:47:14;;;;;;;29.77;15.00;;;;;;;16.50;100.00;101250.47;5027198;28;20049;-65
2023/10/11 03:52:05;;;;;;;34.40;16.85;;;;;;;16.54;100.00;101238.72;5026387;28;20037;-66
2023/10/11 03:54:31;;;;;;;42.13;17.70;;;;;;;16.55;100.00;101235.97;5028163;28;20032;-65
2023/10/11 03:56:56;;;;;;;34.47;16.95;;;;;;;16.53;100.00;101235.19;5026550;28;20085;-65
2023/10/11 03:59:25;;;;;;;33.35;16.45;;;;;;;16.61;100.00;101247.22;5027987;28;20021;-64
2023/10/11 04:01:50;;;;;;;42.10;16.38;;;;;;;16.62;100.00;101233.84;5026868;28;20029;-65
2023/10/11 04:04:16;;;;;;;51.47;17.10;;;;;;;16.70;100.00;101219.28;5026855;28;20036;-63
2023/10/11 04:06:42;;;;;;;37.65;16.63;;;;;;;16.75;100.00;101239.38;5027802;28;20018;-64
2023/10/11 04:09:22;;;;;;;37.85;16.85;;;;;;;16.76;100.00;101229.56;5027677;28;20049;-66
2023/10/11 04:11:56;;;;;;;38.10;17.92;;;;;;;16.79;100.00;101229.41;5027816;28;20076;-65
2023/10/11 04:14:39;;;;;;;35.13;17.08;;;;;;;16.87;100.00;101242.31;5028103;28;20043;-64
2023/10/11 04:17:11;;;;;;;34.58;15.43;;;;;;;16.95;100.00;101244.56;5024425;28;20033;-65
2023/10/11 04:19:40;;;;;;;40.05;16.90;;;;;;;16.97;100.00;101242.66;5026914;28;20025;-66
2023/10/11 04:22:12;;;;;;;36.92;16.25;;;;;;;17.03;100.00;101237.88;5027159;28;20056;-66
2023/10/11 04:24:39;;;;;;;35.50;15.65;;;;;;;17.00;100.00;101227.38;5026659;28;20598;-65
2023/10/11 04:29:51;;;;;;;38.72;16.08;;;;;;;17.03;100.00;101218.38;5028076;28;20030;-64
2023/10/11 04:35:01;;;;;;;36.25;17.55;;;;;;;17.08;100.00;101237.66;5030658;28;20060;-69
2023/10/11 04:37:43;;;;;;;37.40;16.65;;;;;;;17.01;100.00;101233.59;5031250;28;20025;-65
2023/10/11 04:40:38;;;;;;;33.58;16.73;;;;;;;17.00;100.00;101234.50;5030388;28;20425;-65
2023/10/11 04:43:06;;;;;;;36.25;16.55;;;;;;;17.04;100.00;101231.59;5031000;28;20079;-65
2023/10/11 04:45:46;;;;;;;42.72;18.52;;;;;;;17.08;100.00;101242.09;5030051;28;20025;-65
2023/10/11 04:48:19;;;;;;;34.70;16.77;;;;;;;17.08;100.00;101244.78;5030563;28;20044;-66
2023/10/11 04:50:50;;;;;;;42.75;18.00;;;;;;;17.05;100.00;101248.44;5030417;28;20025;-66
2023/10/11 04:53:19;;;;;;;42.55;17.17;;;;;;;17.08;100.00;101242.97;5030565;28;20059;-64
2023/10/11 04:55:47;;;;;;;34.88;17.45;;;;;;;17.09;100.00;101241.16;5029348;28;20028;-64
2023/10/11 04:58:21;;;;;;;41.80;18.07;;;;;;;17.08;100.00;101239.44;5030189;28;20033;-66
2023/10/11 05:00:48;;;;;;;40.45;17.75;;;;;;;17.08;100.00;101232.31;5028957;28;20752;-66
2023/10/11 05:03:17;;;;;;;45.70;18.20;;;;;;;17.10;100.00;101226.91;5029748;28;20061;-67
2023/10/11 05:05:58;;;;;;;41.67;17.92;;;;;;;17.14;100.00;101217.81;5029986;28;20075;-65
2023/10/11 05:08:50;;;;;;;35.33;16.75;;;;;;;17.18;100.00;101222.00;5029922;28;20495;-66
2023/10/11 05:11:32;;;;;;;47.42;18.35;;;;;;;17.12;100.00;101244.53;5030721;28;20083;-64
2023/10/11 05:14:10;;;;;;;45.13;18.13;;;;;;;17.16;100.00;101232.75;5030024;28;20029;-66
2023/10/11 05:16:38;;;;;;;40.65;16.23;;;;;;;17.18;100.00;101228.22;5028240;28;20044;-67
2023/10/11 05:19:06;;;;;;;42.58;17.85;;;;;;;17.14;100.00;101234.66;5029353;28;20031;-67
2023/10/11 05:21:38;;;;;;;35.50;16.88;;;;;;;17.19;100.00;101226.41;5029369;28;20546;-65
2023/10/11 05:24:29;;;;;;;41.22;16.85;;;;;;;17.15;100.00;101224.84;5029365;28;20490;-63
2023/10/11 05:27:11;;;;;;;36.15;17.38;;;;;;;17.17;100.00;101230.97;5030182;28;20030;-64
2023/10/11 05:30:04;;;;;;;42.78;18.05;;;;;;;17.20;100.00;101224.59;5029950;28;20171;-67
2023/10/11 05:32:24;;;;;;;42.40;16.58;;;;;;;17.16;100.00;101221.25;5029548;28;20041;-63
2023/10/11 05:35:07;;;;;;;47.33;18.98;;;;;;;17.18;100.00;101230.00;5028770;28;20388;-67
2023/10/11 05:51:13;;;;;;;42.75;17.23;;;;;;;17.17;100.00;101218.50;5023559;28;20049;-66
2023/10/11 05:53:40;;;;;;;46.10;17.20;;;;;;;17.24;100.00;101215.47;5028715;28;20025;-64
2023/10/11 05:56:08;;;;;;;42.90;18.25;;;;;;;17.21;100.00;101221.84;5028237;28;20025;-65
2023/10/11 05:58:34;;;;;;;46.92;18.52;;;;;;;17.30;100.00;101226.66;5028558;28;20448;-65
2023/10/11 06:01:05;;;;;;;37.47;17.23;;;;;;;17.32;100.00;101226.56;5027977;28;20025;-67
2023/10/11 06:03:35;;;;;;;41.38;16.73;;;;;;;17.33;100.00;101244.25;5028746;28;20117;-65
2023/10/11 06:06:10;;;;;;;40.42;16.85;;;;;;;17.38;100.00;101236.88;5028582;28;20472;-66
2023/10/11 06:08:38;;;;;;;38.30;16.73;;;;;;;17.42;100.00;101235.75;5028313;28;20036;-65
2023/10/11 06:11:08;;;;;;;43.03;16.02;;;;;;;17.46;100.00;101244.41;5027965;28;20025;-64
2023/10/11 06:13:33;;;;;;;42.63;16.17;;;;;;;17.48;100.00;101239.88;5027985;28;20030;-67
2023/10/11 06:15:59;;;;;;;41.33;16.30;;;;;;;17.51;100.00;101241.50;5026542;28;20645;-69
2023/10/11 06:18:39;;;;;;;40.20;16.30;;;;;;;17.52;100.00;101245.91;5027696;28;20476;-69
2023/10/11 06:21:30;;;;;;;39.25;15.65;;;;;;;17.56;100.00;101252.75;5027332;28;20465;-64
2023/10/11 06:24:04;;;;;;;35.50;15.10;;;;;;;17.53;100.00;101259.13;5026605;28;20072;-68
2023/10/11 06:29:07;;;;;;;43.25;15.90;;;;;;;17.53;100.00;101256.47;5028890;28;20064;-65
2023/10/11 06:31:39;;;;;;;42.50;15.90;;;;;;;17.62;100.00;101257.75;5026296;28;20484;-65
2023/10/11 06:36:51;;;;;;;38.85;15.20;;;;;;;17.68;100.00;101253.88;5028174;28;20030;-66
2023/10/11 06:40:07;;;;;;;;;;;;;;;17.64;100.00;101253.16;5028303;28;20033;-65
2023/10/11 06:44:57;;;;;;;44.63;14.98;;;;;;;17.62;100.00;101249.75;5025920;28;20033;-67
2023/10/11 06:47:24;;;;;;;41.97;15.05;;;;;;;17.63;100.00;101235.47;5026374;28;20380;-66
2023/10/11 06:49:54;;;;;;;37.03;15.38;;;;;;;17.64;100.00;101239.84;5059146;28;20092;-64
2023/10/11 06:52:25;;;;;;;45.53;16.02;;;;;;;17.71;100.00;101247.50;5026413;28;20126;-64
2023/10/11 06:55:07;;;;;;;42.75;15.23;;;;;;;17.72;100.00;101243.88;5026110;28;20069;-66
2023/10/11 06:57:38;;;;;;;47.50;16.30;;;;;;;17.66;100.00;101253.94;5027957;28;20108;-64
2023/10/11 07:00:23;;;;;;;43.35;14.60;;;;;;;17.71;100.00;101244.81;5025883;28;20024;-66
2023/10/11 07:02:54;;;;;;;42.78;15.13;;;;;;;17.68;100.00;101244.06;5027407;28;20487;-66
2023/10/11 07:05:20;;;;;;;39.70;15.20;;;;;;;17.71;100.00;101244.81;5027679;28;20026;-67
2023/10/11 07:07:49;;;;;;;49.25;14.52;;;;;;;17.67;100.00;101253.00;5027178;28;20549;-65
2023/10/11 07:10:32;;;;;;;49.80;15.70;;;;;;;17.73;100.00;101259.78;5027427;28;20032;-68
2023/10/11 07:13:05;;;;;;;40.67;14.32;;;;;;;17.78;100.00;101268.38;5027783;28;20549;-67
2023/10/11 07:15:50;;;;;;;37.78;14.90;;;;;;;17.85;100.00;101262.69;5027374;28;20032;-66
2023/10/11 07:18:25;;;;;;;43.33;14.73;;;;;;;17.85;100.00;101268.88;5027576;28;20029;-65
2023/10/11 07:20:58;;;;;;;43.33;14.57;;;;;;;17.91;100.00;101275.66;5027220;28;20117;-66
2023/10/11 07:23:24;;;;;;;41.55;15.38;;;;;;;17.86;100.00;101278.59;5027327;28;20470;-67
2023/10/11 07:25:59;;;;;;;40.30;14.48;;;;;;;17.89;100.00;101277.56;5027107;28;20033;-63
2023/10/11 07:28:37;;;;;;;53.75;15.55;;;;;;;17.89;100.00;101288.22;5026057;28;20076;-66
2023/10/11 07:31:05;;;;;;;48.28;14.35;;;;;;;17.85;100.00;101298.19;5025651;28;20423;-65
2023/10/11 07:33:31;;;;;;;43.35;13.95;;;;;;;17.94;100.00;101287.00;5026542;28;20017;-66
2023/10/11 07:35:59;;;;;;;39.85;14.70;;;;;;;17.93;100.00;101274.63;5025515;28;20044;-66
2023/10/11 07:38:32;;;;;;;41.38;13.48;;;;;;;17.89;100.00;101286.41;5026236;28;20415;-62
2023/10/11 07:41:04;;;;;;;38.08;14.02;;;;;;;17.93;100.00;101279.97;5025998;28;20355;-63
2023/10/11 07:43:32;;;;;;;43.92;13.35;;;;;;;18.01;100.00;101276.84;5027627;28;20079;-64
2023/10/11 07:46:01;;;;;;;38.58;13.60;;;;;;;18.04;100.00;101286.47;5026323;28;20021;-64
2023/10/11 07:48:31;;;;;;;46.88;14.55;;;;;;;18.12;100.00;101288.72;5025775;28;20044;-64
2023/10/11 07:50:59;;;;;;;41.30;13.13;;;;;;;18.13;100.00;101279.75;5026445;28;20033;-66
2023/10/11 07:53:25;;;;;;;38.33;12.80;;;;;;;18.18;100.00;101285.66;5025480;28;20022;-66
2023/10/11 07:55:51;;;;;;;39.45;13.32;;;;;;;18.21;100.00;101284.66;5024233;28;20018;-66
2023/10/11 07:58:26;;;;;;;34.92;12.85;;;;;;;18.26;100.00;101291.41;5026721;28;20356;-66
2023/10/11 08:00:51;;;;;;;46.47;13.40;;;;;;;18.13;100.00;101293.09;5023495;28;20017;-63
2023/10/11 08:03:17;;;;;;;38.97;13.05;;;;;;;18.15;100.00;101285.88;5026697;28;20457;-64
2023/10/11 08:05:46;;;;;;;44.53;14.32;;;;;;;18.13;100.00;101288.63;5028339;28;20034;-65
2023/10/11 08:08:15;;;;;;;38.13;14.30;;;;;;;18.13;100.00;101290.44;5029354;28;20060;-64
2023/10/11 08:10:44;;;;;;;41.40;14.73;;;;;;;18.16;100.00;101291.13;5029577;28;20427;-63
2023/10/11 08:13:23;;;;;;;48.65;14.65;;;;;;;18.15;100.00;101307.22;5029781;28;20048;-66
2023/10/11 08:15:59;;;;;;;36.95;12.20;;;;;;;18.07;100.00;101304.94;5028501;28;20060;-65
2023/10/11 08:18:26;;;;;;;25.65;10.23;;;;;;;18.12;100.00;101294.06;5030627;28;20075;-65
2023/10/11 08:20:52;;;;;;;22.10;8.20;;;;;;;18.16;100.00;101301.78;5030302;28;20021;-64
2023/10/11 08:23:28;;;;;;;16.08;6.55;;;;;;;18.23;100.00;101296.06;5029915;28;20057;-63
2023/10/11 08:25:58;;;;;;;15.73;6.40;;;;;;;18.25;100.00;101310.19;5030198;28;20045;-61
2023/10/11 08:28:34;;;;;;;22.33;6.15;;;;;;;18.29;100.00;101301.03;5029570;28;20034;-62
2023/10/11 08:30:59;;;;;;;21.75;6.20;;;;;;;18.36;100.00;101302.38;5029804;28;20075;-63
2023/10/11 08:33:25;;;;;;;15.95;6.03;;;;;;;18.54;100.00;101311.09;5029574;28;20037;-64
2023/10/11 08:35:53;;;;;;;15.35;5.88;;;;;;;18.57;100.00;101307.38;5029117;28;20400;-63
2023/10/11 08:38:19;;;;;;;16.63;5.43;;;;;;;18.57;100.00;101312.72;5030278;28;20063;-64
2023/10/11 08:40:49;;;;;;;17.00;6.05;;;;;;;18.51;100.00;101297.09;5028903;28;20567;-65
2023/10/11 08:43:15;;;;;;;18.55;5.90;;;;;;;18.49;100.00;101294.53;5028509;28;20104;-64
2023/10/11 08:45:48;;;;;;;12.68;5.57;;;;;;;18.69;100.00;101300.44;5028463;28;20121;-65
2023/10/11 08:48:14;;;;;;;15.45;5.95;;;;;;;18.67;100.00;101303.19;5027252;28;20029;-64
2023/10/11 08:50:53;;;;;;;16.20;6.20;;;;;;;18.72;100.00;101302.91;5027252;28;20075;-66
2023/10/11 08:53:22;;;;;;;15.05;6.00;;;;;;;18.75;100.00;101301.91;5027775;28;20100;-64
2023/10/11 08:55:56;;;;;;;22.33;6.28;;;;;;;18.80;100.00;101313.13;5028434;28;20024;-63
2023/10/11 08:58:28;;;;;;;21.65;6.45;;;;;;;18.76;100.00;101298.25;5029776;28;20026;-62
2023/10/11 09:00:58;;;;;;;15.30;6.28;;;;;;;18.79;100.00;101304.25;5027577;28;20021;-65
2023/10/11 09:03:43;;;;;;;13.65;5.80;;;;;;;18.72;100.00;101296.75;5029718;28;20026;-64
2023/10/11 09:06:22;;;;;;;14.82;5.95;;;;;;;18.71;100.00;101292.34;5029944;28;20075;-63
2023/10/11 09:08:47;;;;;;;;;;;;;;;18.84;100.00;101301.31;5028169;28;20101;-64
2023/10/11 09:11:35;;;;;;;16.75;5.28;;;;;;;18.82;100.00;101296.06;5028940;28;19999;-63
2023/10/11 09:14:09;;;;;;;13.90;5.88;;;;;;;18.85;100.00;101311.06;5028696;28;20025;-63
2023/10/11 09:16:34;;;;;;;12.15;5.25;;;;;;;18.88;100.00;101313.53;5027588;28;20395;-66
2023/10/11 09:19:09;;;;;;;17.00;5.30;;;;;;;18.88;100.00;101315.34;5028326;28;20021;-64
2023/10/11 09:21:35;;;;;;;16.00;5.13;;;;;;;18.96;100.00;101315.72;5028661;28;20038;-64
2023/10/11 09:24:01;;;;;;;16.50;5.78;;;;;;;18.85;100.00;101329.75;5029163;28;20030;-62
2023/10/11 09:26:34;;;;;;;15.18;5.70;;;;;;;18.86;100.00;101318.09;5029138;28;20036;-63
2023/10/11 09:29:02;;;;;;;21.00;5.95;;;;;;;18.88;100.00;101328.69;5027464;28;20043;-62
2023/10/11 09:31:32;;;;;;;17.63;5.90;;;;;;;18.83;100.00;101331.63;5027479;28;20028;-62
2023/10/11 09:34:04;;;;;;;20.02;5.93;;;;;;;18.88;100.00;101342.03;5028794;28;20021;-60
2023/10/11 09:36:29;;;;;;;12.10;5.40;;;;;;;18.91;100.00;101339.19;5028924;28;20065;-62
2023/10/11 09:38:56;;;;;;;15.65;5.93;;;;;;;19.08;100.00;101343.50;5028260;28;20502;-62
2023/10/11 09:41:24;;;;;;;20.45;5.85;;;;;;;19.05;100.00;101335.63;5028045;28;20025;-62
2023/10/11 09:43:54;;;;;;;13.75;6.00;;;;;;;19.22;100.00;101333.75;5028223;28;20384;-62
2023/10/11 09:46:20;;;;;;;16.73;5.95;;;;;;;19.25;100.00;101318.41;5027849;28;20026;-64
2023/10/11 09:48:48;;;;;;;17.92;5.25;;;;;;;19.38;100.00;101341.69;5042849;28;20095;-62
2023/10/11 09:51:17;;;;;;;20.33;5.75;;;;;;;19.52;100.00;101327.41;5029140;28;20067;-62
2023/10/11 09:53:42;;;;;;;13.93;5.78;;;;;;;19.72;100.00;101327.94;5028840;28;20017;-61
2023/10/11 09:56:23;;;;;;;26.00;5.90;;;;;;;19.68;100.00;101330.81;5028414;28;20044;-61
2023/10/11 09:58:58;;;;;;;17.20;6.10;;;;;;;19.97;100.00;101337.03;5043724;28;20079;-65
2023/10/11 10:01:32;;;;;;;15.95;5.97;;;;;;;20.03;100.00;101347.34;5010313;28;20543;-61
2023/10/11 10:04:04;;;;;;;22.50;6.05;;;;;;;20.18;100.00;101346.34;5028386;28;20029;-64
2023/10/11 10:06:30;;;;;;;14.98;5.28;;;;;;;20.37;100.00;101334.38;5029237;28;20097;-64
2023/10/11 10:09:16;;;;;;;15.88;4.70;;;;;;;20.48;100.00;101333.66;5042830;28;20449;-61
2023/10/11 10:12:05;;;;;;;14.77;5.28;;;;;;;20.34;100.00;101315.84;5029004;28;20456;-62
2023/10/11 10:14:33;;;;;;;19.38;5.85;;;;;;;20.57;100.00;101322.34;5028498;28;20029;-61
2023/10/11 10:17:12;;;;;;;19.55;5.55;;;;;;;20.82;100.00;101333.13;5027940;28;20034;-63
2023/10/11 10:19:43;;;;;;;10.40;4.68;;;;;;;20.90;100.00;101346.91;5027228;28;20045;-61
2023/10/11 10:22:17;;;;;;;12.35;4.50;;;;;;;20.98;100.00;101349.00;5026708;28;20103;-61
2023/10/11 10:24:46;;;;;;;17.45;4.72;;;;;;;20.97;100.00;101325.88;5027753;28;20022;-62
2023/10/11 10:27:35;;;;;;;13.27;4.35;;;;;;;21.04;100.00;101327.16;5026752;28;20040;-61
2023/10/11 10:30:03;;;;;;;9.85;4.50;;;;;;;21.22;100.00;101318.75;5024506;28;20037;-62
2023/10/11 10:32:29;;;;;;;15.23;4.32;;;;;;;21.27;100.00;101311.25;5026819;28;20030;-62
2023/10/11 10:35:19;;;;;;;12.07;4.50;;;;;;;21.34;100.00;101311.66;5027591;28;20031;-63
2023/10/11 10:37:57;;;;;;;10.60;4.18;;;;;;;21.61;100.00;101291.00;5026497;28;20032;-63
2023/10/11 10:40:25;;;;;;;8.57;3.53;;;;;;;21.84;100.00;101273.22;5026570;28;20033;-63
2023/10/11 10:43:19;;;;;;;11.48;3.80;;;;;;;22.13;100.00;101288.06;5026652;28;20071;-62
2023/10/11 10:45:47;;;;;;;10.63;3.88;;;;;;;22.19;100.00;101287.63;5026426;28;20045;-62
2023/10/11 10:48:23;;;;;;;8.18;3.65;;;;;;;21.84;100.00;101302.72;5026894;28;20029;-64
2023/10/11 10:50:54;;;;;;;8.68;3.85;;;;;;;21.69;100.00;101289.47;5028028;28;20052;-62
2023/10/11 10:53:20;;;;;;;10.57;3.35;;;;;;;21.65;100.00;101288.00;5026220;28;20029;-65
2023/10/11 10:55:46;;;;;;;9.50;3.53;;;;;;;21.67;100.00;101295.91;5026393;28;20053;-62
2023/10/11 10:58:19;;;;;;;9.13;3.40;;;;;;;21.65;100.00;101282.63;5026977;28;20494;-61
2023/10/11 11:00:47;;;;;;;9.35;3.55;;;;;;;21.57;100.00;101277.81;5025366;28;20029;-63
2023/10/11 11:03:22;;;;;;;10.37;3.70;;;;;;;21.44;100.00;101266.28;5027105;28;20052;-62
2023/10/11 11:05:59;;;;;;;9.10;3.78;;;;;;;21.19;100.00;101262.75;5025686;28;20021;-64
2023/10/11 11:08:29;;;;;;;9.80;3.67;;;;;;;21.24;100.00;101263.25;5027363;28;20018;-66
2023/10/11 11:11:18;;;;;;;14.38;4.15;;;;;;;21.17;100.00;101273.56;5024920;28;20569;-62
2023/10/11 11:13:44;;;;;;;6.80;3.70;;;;;;;21.49;100.00;101276.69;5022824;28;20064;-63
2023/10/11 11:16:20;;;;;;;11.48;3.60;;;;;;;21.67;100.00;101275.31;5024959;28;20021;-62
2023/10/11 11:18:46;;;;;;;13.65;3.85;;;;;;;21.82;100.00;101272.47;5021364;28;20017;-61
2023/10/11 11:21:25;;;;;;;9.07;3.78;;;;;;;21.89;100.00;101289.84;5026042;28;20472;-64
2023/10/11 11:23:51;;;;;;;12.95;3.83;;;;;;;21.78;100.00;101281.72;5021185;28;20026;-62
2023/10/11 11:26:22;;;;;;;12.90;3.95;;;;;;;21.73;100.00;101289.25;5022205;28;20484;-65
2023/10/11 11:28:51;;;;;;;19.50;4.50;;;;;;;21.65;100.00;101279.94;5022310;28;20088;-61
2023/10/11 11:33:48;;;;;;;15.73;4.20;;;;;;;21.68;100.00;101270.81;5022672;28;20045;-62
2023/10/11 11:36:34;;;;;;;11.38;3.75;;;;;;;21.66;100.00;101278.09;5016768;28;20041;-62
2023/10/11 11:39:46;;;;;;;13.18;4.07;;;;;;;21.77;100.00;101271.97;5024683;28;20022;-61
2023/10/11 11:41:47;;;;;;;12.18;4.20;;;;;;;21.63;100.00;101287.22;5027483;28;20037;-62
2023/10/11 11:44:19;;;;;;;14.77;4.70;;;;;;;21.68;100.00;101277.03;5028288;28;20030;-61
2023/10/11 11:46:55;;;;;;;7.53;3.10;;;;;;;21.58;100.00;101275.97;5029742;28;20140;-60
2023/10/11 11:49:22;;;;;;;13.43;3.35;;;;;;;21.74;100.00;101264.13;5030973;28;20712;-61
2023/10/11 11:51:50;;;;;;;14.82;3.60;;;;;;;21.78;100.00;101268.31;5031254;28;20034;-62
2023/10/11 11:54:18;;;;;;;;;;;;;;;21.67;100.00;101269.94;5031150;28;20041;-62
2023/10/11 11:56:45;;;;;;;13.45;3.17;;;;;;;21.45;100.00;101270.69;5029539;28;20386;-61
2023/10/11 11:59:17;;;;;;;12.90;3.47;;;;;;;21.32;100.00;101274.28;5029368;28;20080;-61